createdAt,value
2023-02-23T00:02:23.615Z,8.20
2023-02-23T00:04:52.405Z,8.73
2023-02-23T00:07:21.615Z,9.20
2023-02-23T00:09:50.951Z,9.17
2023-02-23T00:12:20.816Z,8.27
2023-02-23T00:14:49.813Z,8.23
2023-02-23T00:17:20.262Z,8.43
2023-02-23T00:19:49.478Z,9.10
2023-02-23T00:22:18.458Z,8.73
2023-02-23T00:24:48.131Z,9.60
2023-02-23T00:27:20.950Z,8.90
2023-02-23T00:29:51.125Z,9.63
2023-02-23T00:32:21.850Z,9.47
2023-02-23T00:34:53.472Z,9.20
2023-02-23T00:37:23.551Z,9.57
2023-02-23T00:39:52.931Z,10.10
2023-02-23T00:42:21.811Z,9.43
2023-02-23T00:44:50.875Z,10.03
2023-02-23T00:47:21.097Z,10.10
2023-02-23T00:49:51.437Z,9.23
2023-02-23T00:52:21.242Z,9.73
2023-02-23T00:54:49.991Z,9.23
2023-02-23T00:57:18.808Z,9.57
2023-02-23T00:59:47.577Z,9.60
2023-02-23T01:02:17.529Z,9.83
2023-02-23T01:04:47.736Z,9.33
2023-02-23T01:07:16.608Z,10.33
2023-02-23T01:09:45.293Z,10.07
2023-02-23T01:12:14.173Z,9.97
2023-02-23T01:14:47.660Z,9.80
2023-02-23T01:17:17.969Z,10.10
2023-02-23T01:19:48.128Z,10.27
2023-02-23T01:22:16.842Z,11.47
2023-02-23T01:24:45.553Z,10.97
2023-02-23T01:27:14.257Z,10.27
2023-02-23T01:29:43.064Z,10.03
2023-02-23T01:32:12.010Z,10.20
2023-02-23T01:34:40.918Z,10.27
2023-02-23T01:37:11.080Z,11.23
2023-02-23T01:39:39.857Z,10.73
2023-02-23T01:42:13.803Z,11.57
2023-02-23T01:45:22.211Z,10.77
2023-02-23T01:47:53.012Z,11.03
2023-02-23T01:50:25.703Z,9.90
2023-02-23T01:52:59.370Z,11.23
2023-02-23T01:55:29.883Z,10.40
2023-02-23T01:58:08.119Z,10.23
2023-02-23T02:00:37.844Z,10.43
2023-02-23T02:03:14.097Z,10.10
2023-02-23T02:05:43.471Z,11.27
2023-02-23T02:08:14.279Z,11.60
2023-02-23T02:10:46.716Z,11.10
2023-02-23T02:13:22.289Z,10.87
2023-02-23T02:16:31.304Z,10.30
2023-02-23T02:19:31.601Z,10.47
2023-02-23T02:22:30.745Z,10.83
2023-02-23T02:25:36.577Z,10.57
2023-02-23T02:28:46.326Z,11.27
2023-02-23T02:31:57.090Z,10.67
2023-02-23T02:34:49.962Z,10.97
2023-02-23T02:37:41.114Z,10.63
2023-02-23T02:40:18.339Z,10.67
2023-02-23T02:43:08.737Z,11.40
2023-02-23T02:45:44.688Z,10.77
2023-02-23T02:48:21.740Z,11.00
2023-02-23T02:50:57.257Z,10.63
2023-02-23T02:53:37.814Z,11.77
2023-02-23T02:56:08.698Z,10.93
2023-02-23T02:58:43.590Z,11.23
2023-02-23T03:01:33.277Z,11.33
2023-02-23T03:04:23.650Z,10.43
2023-02-23T03:07:16.665Z,11.30
2023-02-23T03:10:13.751Z,11.20
2023-02-23T03:13:12.957Z,10.57
2023-02-23T03:16:11.190Z,10.93
2023-02-23T03:19:16.415Z,11.97
2023-02-23T03:22:10.207Z,10.30
2023-02-23T03:24:59.513Z,10.70
2023-02-23T03:28:01.361Z,10.70
2023-02-23T03:30:59.057Z,11.33
2023-02-23T03:33:53.089Z,10.97
2023-02-23T03:36:44.256Z,11.63
2023-02-23T03:39:38.238Z,11.30
2023-02-23T03:42:29.691Z,11.60
2023-02-23T03:45:23.453Z,10.80
2023-02-23T03:48:13.497Z,12.33
2023-02-23T03:51:04.259Z,10.93
2023-02-23T03:53:59.210Z,11.27
2023-02-23T03:56:47.226Z,11.30
2023-02-23T03:59:37.169Z,11.43
2023-02-23T04:02:26.582Z,10.80
2023-02-23T04:05:17.562Z,10.67
2023-02-23T04:08:06.530Z,11.87
2023-02-23T04:10:54.277Z,11.43
2023-02-23T04:13:26.403Z,11.30
2023-02-23T04:15:57.468Z,11.23
2023-02-23T04:18:29.725Z,11.20
2023-02-23T04:20:59.379Z,10.90
2023-02-23T04:23:29.548Z,11.23
2023-02-23T04:25:58.488Z,10.93
2023-02-23T04:28:29.589Z,11.33
2023-02-23T04:30:58.379Z,11.20
2023-02-23T04:33:28.714Z,11.97
2023-02-23T04:35:57.545Z,11.03
2023-02-23T04:38:26.254Z,10.60
2023-02-23T04:40:55.184Z,12.03
2023-02-23T04:43:23.873Z,10.97
2023-02-23T04:45:53.375Z,11.40
2023-02-23T04:48:25.127Z,12.17
2023-02-23T04:50:56.228Z,12.03
2023-02-23T04:53:26.038Z,11.60
2023-02-23T04:55:54.859Z,13.10
2023-02-23T04:58:23.719Z,12.20
2023-02-23T05:00:52.716Z,12.80
2023-02-23T05:03:21.556Z,12.83
2023-02-23T05:05:50.341Z,12.07
2023-02-23T05:08:20.580Z,12.47
2023-02-23T05:10:49.292Z,12.97
2023-02-23T05:13:18.030Z,12.00
2023-02-23T05:15:46.858Z,12.80
2023-02-23T05:18:15.729Z,13.17
2023-02-23T05:20:45.734Z,12.10
2023-02-23T05:23:15.564Z,12.13
2023-02-23T05:25:45.680Z,12.20
2023-02-23T05:28:14.591Z,13.53
2023-02-23T05:30:43.627Z,14.53
2023-02-23T05:33:14.110Z,12.63
2023-02-23T05:35:43.200Z,14.70
2023-02-23T05:38:11.890Z,13.47
2023-02-23T05:40:41.678Z,15.00
2023-02-23T05:43:11.791Z,13.20
2023-02-23T05:45:42.437Z,14.30
2023-02-23T05:48:11.688Z,14.30
2023-02-23T05:50:40.818Z,14.30
2023-02-23T05:53:10.426Z,14.23
2023-02-23T05:55:39.170Z,13.67
2023-02-23T05:58:07.973Z,12.87
2023-02-23T06:00:38.057Z,13.13
2023-02-23T06:03:06.868Z,13.57
2023-02-23T06:05:35.573Z,14.07
2023-02-23T06:08:04.407Z,12.87
2023-02-23T06:10:33.184Z,13.70
2023-02-23T06:13:02.373Z,14.57
2023-02-23T06:15:31.368Z,14.90
2023-02-23T06:18:01.465Z,14.23
2023-02-23T06:20:30.268Z,14.10
2023-02-23T06:22:59.110Z,14.13
2023-02-23T06:25:27.986Z,14.27
2023-02-23T06:27:56.798Z,14.77
2023-02-23T06:30:25.638Z,14.03
2023-02-23T06:32:54.459Z,14.80
2023-02-23T06:35:26.105Z,13.43
2023-02-23T06:37:55.594Z,14.30
2023-02-23T06:40:24.367Z,13.93
2023-02-23T06:42:53.281Z,14.43
2023-02-23T06:45:22.122Z,14.43
2023-02-23T06:47:50.938Z,13.70
2023-02-23T06:50:20.123Z,14.83
2023-02-23T06:52:50.492Z,14.93
2023-02-23T06:55:20.626Z,14.30
2023-02-23T06:57:51.529Z,15.17
2023-02-23T07:00:21.273Z,15.50
2023-02-23T07:02:49.993Z,14.73
2023-02-23T07:05:18.990Z,14.27
2023-02-23T07:07:49.090Z,14.13
2023-02-23T07:10:18.624Z,15.30
2023-02-23T07:12:47.516Z,14.90
2023-02-23T07:15:18.492Z,14.87
2023-02-23T07:17:48.955Z,15.20
2023-02-23T07:20:18.120Z,15.40
2023-02-23T07:22:46.882Z,15.63
2023-02-23T07:25:17.172Z,16.80
2023-02-23T07:27:45.903Z,14.93
2023-02-23T07:30:15.903Z,16.00
2023-02-23T07:32:44.720Z,15.30
2023-02-23T07:35:13.522Z,15.77
2023-02-23T07:37:42.215Z,16.93
2023-02-23T07:40:13.192Z,16.13
2023-02-23T07:42:44.652Z,22.17
2023-02-23T07:45:13.495Z,15.67
2023-02-23T07:47:42.288Z,15.73
2023-02-23T07:50:12.767Z,16.07
2023-02-23T07:52:44.086Z,17.03
2023-02-23T07:55:13.500Z,15.90
2023-02-23T07:57:43.596Z,15.73
2023-02-23T08:00:13.498Z,15.67
2023-02-23T08:02:42.251Z,16.80
2023-02-23T08:05:11.268Z,15.77
2023-02-23T08:07:40.040Z,16.57
2023-02-23T08:10:09.615Z,15.30
2023-02-23T08:12:38.472Z,16.23
2023-02-23T08:15:09.908Z,15.60
2023-02-23T08:17:39.656Z,15.80
2023-02-23T08:20:10.428Z,14.97
2023-02-23T08:22:48.882Z,15.63
2023-02-23T08:25:19.150Z,17.53
2023-02-23T08:27:48.225Z,16.37
2023-02-23T08:30:19.848Z,15.57
2023-02-23T08:32:49.062Z,16.33
2023-02-23T08:35:18.686Z,15.63
2023-02-23T08:37:47.848Z,16.23
2023-02-23T08:40:18.340Z,16.43
2023-02-23T08:42:48.612Z,15.73
2023-02-23T08:45:19.931Z,17.43
2023-02-23T08:47:48.714Z,16.43
2023-02-23T08:50:17.554Z,17.30
2023-02-23T08:52:46.300Z,16.43
2023-02-23T08:55:18.145Z,16.27
2023-02-23T08:57:46.867Z,15.53
2023-02-23T09:00:16.793Z,16.33
2023-02-23T09:02:48.707Z,16.50
2023-02-23T09:05:18.133Z,16.30
2023-02-23T09:07:47.658Z,16.73
2023-02-23T09:10:19.804Z,17.07
2023-02-23T09:12:48.572Z,15.50
2023-02-23T09:15:17.479Z,17.47
2023-02-23T09:17:48.022Z,18.60
2023-02-23T09:20:18.562Z,16.07
2023-02-23T09:22:49.653Z,15.83
2023-02-23T09:25:22.037Z,15.80
2023-02-23T09:27:51.836Z,16.17
2023-02-23T09:30:22.212Z,15.93
2023-02-23T09:32:52.541Z,15.90
2023-02-23T09:35:23.602Z,17.57
2023-02-23T09:37:54.887Z,16.93
2023-02-23T09:40:26.515Z,17.40
2023-02-23T09:43:02.165Z,15.40
2023-02-23T09:45:40.658Z,15.60
2023-02-23T09:48:18.992Z,18.27
2023-02-23T09:50:51.379Z,16.67
2023-02-23T09:53:33.979Z,16.97
2023-02-23T09:56:07.273Z,17.10
2023-02-23T09:58:36.728Z,16.80
2023-02-23T10:01:51.666Z,16.00
2023-02-23T10:04:24.301Z,16.67
2023-02-23T10:06:59.329Z,15.93
2023-02-23T10:09:41.138Z,16.47
2023-02-23T10:12:15.343Z,16.87
2023-02-23T10:15:07.434Z,16.33
2023-02-23T10:17:41.246Z,16.47
2023-02-23T10:20:21.534Z,17.33
2023-02-23T10:22:52.390Z,18.63
2023-02-23T10:25:26.268Z,16.53
2023-02-23T10:27:57.591Z,17.50
2023-02-23T10:30:29.849Z,17.07
2023-02-23T10:33:04.290Z,16.73
2023-02-23T10:35:35.498Z,17.07
2023-02-23T10:38:04.286Z,15.20
2023-02-23T10:40:35.775Z,15.97
2023-02-23T10:43:05.111Z,15.87
2023-02-23T10:45:40.640Z,18.00
2023-02-23T10:48:16.323Z,17.40
2023-02-23T10:50:49.471Z,16.70
2023-02-23T10:53:23.321Z,16.27
2023-02-23T10:56:04.568Z,16.73
2023-02-23T10:58:40.485Z,16.93
2023-02-23T11:01:10.744Z,17.73
2023-02-23T11:03:43.059Z,19.00
2023-02-23T11:06:30.128Z,17.53
2023-02-23T11:08:58.995Z,16.00
2023-02-23T11:11:29.685Z,17.87
2023-02-23T11:13:59.194Z,18.13
2023-02-23T11:16:31.105Z,17.50
2023-02-23T11:19:01.739Z,18.13
2023-02-23T11:21:34.516Z,20.00
2023-02-23T11:24:14.337Z,17.00
2023-02-23T11:26:45.242Z,16.90
2023-02-23T11:29:18.446Z,16.90
2023-02-23T11:31:51.034Z,16.53
2023-02-23T11:34:25.196Z,18.70
2023-02-23T11:37:04.817Z,20.17
2023-02-23T11:39:34.193Z,16.63
2023-02-23T11:42:16.301Z,16.23
2023-02-23T11:44:50.544Z,16.40
2023-02-23T11:47:22.623Z,16.60
2023-02-23T11:49:52.359Z,17.47
2023-02-23T11:52:24.844Z,15.80
2023-02-23T11:54:57.303Z,15.77
2023-02-23T11:57:30.068Z,17.30
2023-02-23T12:00:00.361Z,17.60
2023-02-23T12:02:30.986Z,17.77
2023-02-23T12:05:08.888Z,16.83
2023-02-23T12:07:42.530Z,18.97
2023-02-23T12:10:19.608Z,18.57
2023-02-23T12:13:06.639Z,18.23
2023-02-23T12:15:45.060Z,16.73
2023-02-23T12:18:24.649Z,17.70
2023-02-23T12:20:56.702Z,19.17
2023-02-23T12:23:31.753Z,18.47
2023-02-23T12:26:06.119Z,18.23
2023-02-23T12:28:40.578Z,18.20
2023-02-23T12:31:23.439Z,18.17
2023-02-23T12:33:56.868Z,18.30
2023-02-23T12:36:33.286Z,19.27
2023-02-23T12:39:08.161Z,21.03
2023-02-23T12:41:41.235Z,18.73
2023-02-23T12:44:20.328Z,18.77
2023-02-23T12:46:53.040Z,18.87
2023-02-23T12:49:31.240Z,20.17
2023-02-23T12:52:06.723Z,19.33
2023-02-23T12:54:37.266Z,18.10
2023-02-23T12:57:19.508Z,18.90
2023-02-23T13:00:30.381Z,18.70
2023-02-23T13:03:27.060Z,18.33
2023-02-23T13:06:03.421Z,18.80
2023-02-23T13:08:51.807Z,19.10
2023-02-23T13:11:30.773Z,20.13
2023-02-23T13:14:05.861Z,17.80
2023-02-23T13:16:37.135Z,20.20
2023-02-23T13:19:15.266Z,20.23
2023-02-23T13:21:49.041Z,17.73
2023-02-23T13:24:21.662Z,19.27
2023-02-23T13:27:00.376Z,18.50
2023-02-23T13:29:36.596Z,19.23
2023-02-23T13:32:11.270Z,20.00
2023-02-23T13:34:45.615Z,20.97
2023-02-23T13:37:18.149Z,18.40
2023-02-23T13:39:56.774Z,19.57
2023-02-23T13:42:37.352Z,20.20
2023-02-23T13:45:25.800Z,19.23
2023-02-23T13:47:59.737Z,18.67
2023-02-23T13:50:32.769Z,19.37
2023-02-23T13:53:04.921Z,20.07
2023-02-23T13:55:50.001Z,20.33
2023-02-23T13:58:25.870Z,19.87
2023-02-23T14:01:04.451Z,18.97
2023-02-23T14:03:37.698Z,19.20
2023-02-23T14:06:07.796Z,18.57
2023-02-23T14:08:38.914Z,19.10
2023-02-23T14:11:08.185Z,20.20
2023-02-23T14:13:42.928Z,20.13
2023-02-23T14:16:21.032Z,20.13
2023-02-23T14:19:11.444Z,21.23
2023-02-23T14:21:49.931Z,19.43
2023-02-23T14:24:22.479Z,18.90
2023-02-23T14:27:34.217Z,19.57
2023-02-23T14:30:25.420Z,19.77
2023-02-23T14:32:54.890Z,18.67
2023-02-23T14:35:44.606Z,19.90
2023-02-23T14:38:45.799Z,19.20
2023-02-23T14:41:22.062Z,20.67
2023-02-23T14:43:54.977Z,21.10
2023-02-23T14:46:26.129Z,20.03
2023-02-23T14:49:01.320Z,21.63
2023-02-23T14:51:42.029Z,20.10
2023-02-23T14:54:25.599Z,19.60
2023-02-23T14:56:58.204Z,18.67
2023-02-23T14:59:29.713Z,18.87
2023-02-23T15:02:01.942Z,19.00
2023-02-23T15:04:31.689Z,18.70
2023-02-23T15:07:02.660Z,19.30
2023-02-23T15:09:36.864Z,19.00
2023-02-23T15:12:15.105Z,18.77
2023-02-23T15:14:44.723Z,18.60
2023-02-23T15:17:20.759Z,18.67
2023-02-23T15:19:51.412Z,19.60
2023-02-23T15:22:27.402Z,19.93
2023-02-23T15:25:00.035Z,19.20
2023-02-23T15:27:32.457Z,19.37
2023-02-23T15:30:18.864Z,18.37
2023-02-23T15:32:49.653Z,18.13
2023-02-23T15:35:18.658Z,20.13
2023-02-23T15:37:59.469Z,19.33
2023-02-23T15:40:39.731Z,17.67
2023-02-23T15:43:13.112Z,21.03
2023-02-23T15:45:46.656Z,22.67
2023-02-23T15:48:22.782Z,22.30
2023-02-23T15:50:54.903Z,22.50
2023-02-23T15:53:30.261Z,22.03
2023-02-23T15:56:05.149Z,24.00
2023-02-23T15:58:50.930Z,22.90
2023-02-23T16:01:26.171Z,25.53
2023-02-23T16:04:02.691Z,24.87
2023-02-23T16:06:36.897Z,26.07
2023-02-23T16:09:20.978Z,30.03
2023-02-23T16:11:52.065Z,35.27
2023-02-23T16:14:22.074Z,42.43
2023-02-23T16:17:08.367Z,40.23
2023-02-23T16:19:42.151Z,32.63
2023-02-23T16:22:24.660Z,36.07
2023-02-23T16:25:08.666Z,40.63
2023-02-23T16:27:39.343Z,29.23
2023-02-23T16:30:23.313Z,29.03
2023-02-23T16:33:07.363Z,33.03
2023-02-23T16:35:40.148Z,33.33
2023-02-23T16:38:14.511Z,32.47
2023-02-23T16:40:45.100Z,32.20
2023-02-23T16:43:13.843Z,29.40
2023-02-23T16:45:44.229Z,29.13
2023-02-23T16:48:16.306Z,29.10
2023-02-23T16:50:47.812Z,28.37
2023-02-23T16:53:16.987Z,26.73
2023-02-23T16:55:52.078Z,28.40
2023-02-23T16:58:24.716Z,31.30
2023-02-23T17:00:54.013Z,36.23
2023-02-23T17:03:25.110Z,31.33
2023-02-23T17:05:56.082Z,34.10
2023-02-23T17:08:26.220Z,30.33
2023-02-23T17:10:57.410Z,31.07
2023-02-23T17:13:29.083Z,32.10
2023-02-23T17:15:58.060Z,32.13
2023-02-23T17:18:28.839Z,38.60
2023-02-23T17:21:01.258Z,44.13
2023-02-23T17:23:38.416Z,45.23
2023-02-23T17:26:08.691Z,51.40
2023-02-23T17:28:37.707Z,70.33
2023-02-23T17:31:07.859Z,80.27
2023-02-23T17:33:37.842Z,79.60
2023-02-23T17:36:10.485Z,77.03
2023-02-23T17:38:39.296Z,79.03
2023-02-23T17:41:09.633Z,74.13
2023-02-23T17:43:38.674Z,67.83
2023-02-23T17:46:07.634Z,64.23
2023-02-23T17:48:36.647Z,62.67
2023-02-23T17:51:13.486Z,53.80
2023-02-23T17:53:42.405Z,47.70
2023-02-23T17:56:12.058Z,45.77
2023-02-23T17:58:40.926Z,41.03
2023-02-23T18:01:10.277Z,41.63
2023-02-23T18:03:39.190Z,42.37
2023-02-23T18:06:11.514Z,45.57
2023-02-23T18:08:42.418Z,43.50
2023-02-23T18:11:11.758Z,36.03
2023-02-23T18:13:40.602Z,37.73
2023-02-23T18:16:11.599Z,37.67
2023-02-23T18:18:43.203Z,39.60
2023-02-23T18:21:16.252Z,34.23
2023-02-23T18:23:45.063Z,33.80
2023-02-23T18:26:16.505Z,39.10
2023-02-23T18:28:46.247Z,47.30
2023-02-23T18:31:16.319Z,99.93
2023-02-23T18:33:46.392Z,121.97
2023-02-23T18:36:21.119Z,92.97
2023-02-23T18:38:50.145Z,59.17
2023-02-23T18:41:19.983Z,55.03
2023-02-23T18:43:49.466Z,49.40
2023-02-23T18:46:18.845Z,47.87
2023-02-23T18:48:50.474Z,39.77
2023-02-23T18:51:22.480Z,35.77
2023-02-23T18:53:52.631Z,37.80
2023-02-23T18:56:25.139Z,37.03
2023-02-23T18:58:55.221Z,41.10
2023-02-23T19:01:26.804Z,42.00
2023-02-23T19:03:57.976Z,44.57
2023-02-23T19:06:29.430Z,47.07
2023-02-23T19:08:59.986Z,43.67
2023-02-23T19:11:30.620Z,45.07
2023-02-23T19:14:01.641Z,44.27
2023-02-23T19:16:32.297Z,43.80
2023-02-23T19:19:01.664Z,40.50
2023-02-23T19:21:32.737Z,47.47
2023-02-23T19:24:02.926Z,48.10
2023-02-23T19:26:33.680Z,47.73
2023-02-23T19:29:02.835Z,48.90
2023-02-23T19:31:31.833Z,62.73
2023-02-23T19:34:03.310Z,71.03
2023-02-23T19:36:34.484Z,67.90
2023-02-23T19:39:10.653Z,63.13
2023-02-23T19:41:40.782Z,56.37
2023-02-23T19:44:10.089Z,55.80
2023-02-23T19:46:39.935Z,55.00
2023-02-23T19:49:08.864Z,47.90
2023-02-23T19:51:39.265Z,49.77
2023-02-23T19:54:08.215Z,49.60
2023-02-23T19:56:38.051Z,51.37
2023-02-23T19:59:07.145Z,47.60
2023-02-23T20:01:36.148Z,44.43
2023-02-23T20:04:06.980Z,44.47
2023-02-23T20:06:40.935Z,45.30
2023-02-23T20:09:10.237Z,46.23
2023-02-23T20:11:39.096Z,45.33
2023-02-23T20:14:08.540Z,44.67
2023-02-23T20:16:37.682Z,44.53
2023-02-23T20:19:07.678Z,51.00
2023-02-23T20:21:39.661Z,52.40
2023-02-23T20:24:09.013Z,56.60
2023-02-23T20:26:38.140Z,52.03
2023-02-23T20:29:10.722Z,64.37
2023-02-23T20:31:44.907Z,72.87
2023-02-23T20:34:14.447Z,56.57
2023-02-23T20:36:45.452Z,54.33
2023-02-23T20:39:16.928Z,51.73
2023-02-23T20:41:47.675Z,56.30
2023-02-23T20:44:17.480Z,57.93
2023-02-23T20:46:46.285Z,59.17
2023-02-23T20:49:18.497Z,60.13
2023-02-23T20:51:49.925Z,53.70
2023-02-23T20:54:19.514Z,47.93
2023-02-23T20:56:58.930Z,46.03
2023-02-23T20:59:30.808Z,48.27
2023-02-23T21:02:01.847Z,46.57
2023-02-23T21:04:30.728Z,47.57
2023-02-23T21:07:01.577Z,46.77
2023-02-23T21:09:30.483Z,49.43
2023-02-23T21:11:59.524Z,46.27
2023-02-23T21:14:28.405Z,49.57
2023-02-23T21:16:57.263Z,46.10
2023-02-23T21:19:26.169Z,43.40
2023-02-23T21:21:58.415Z,45.17
2023-02-23T21:24:30.298Z,47.03
2023-02-23T21:26:59.061Z,53.10
2023-02-23T21:29:27.992Z,49.70
2023-02-23T21:31:57.020Z,53.30
2023-02-23T21:34:25.950Z,49.10
2023-02-23T21:36:55.309Z,48.83
2023-02-23T21:39:28.106Z,48.57
2023-02-23T21:41:58.899Z,45.47
2023-02-23T21:44:27.914Z,46.33
2023-02-23T21:46:56.894Z,45.60
2023-02-23T21:49:25.832Z,44.53
2023-02-23T21:51:55.302Z,44.13
2023-02-23T21:54:24.192Z,46.73
2023-02-23T21:56:52.989Z,47.03
2023-02-23T21:59:23.287Z,50.47
2023-02-23T22:01:52.246Z,49.50
2023-02-23T22:04:21.064Z,49.80
2023-02-23T22:06:49.793Z,51.37
2023-02-23T22:09:18.631Z,51.37
2023-02-23T22:11:48.754Z,53.60
2023-02-23T22:14:18.939Z,53.40
2023-02-23T22:16:49.794Z,54.30
2023-02-23T22:19:19.627Z,56.43
2023-02-23T22:21:49.076Z,55.03
2023-02-23T22:24:18.778Z,54.27
2023-02-23T22:26:54.912Z,57.67
2023-02-23T22:29:25.938Z,55.10
2023-02-23T22:31:56.688Z,54.90
2023-02-23T22:34:25.918Z,56.00
2023-02-23T22:36:54.715Z,57.17
2023-02-23T22:39:23.629Z,56.97
2023-02-23T22:41:52.540Z,57.80
2023-02-23T22:44:22.749Z,60.60
2023-02-23T22:46:53.118Z,61.43
2023-02-23T22:49:24.532Z,56.60
2023-02-23T22:51:53.328Z,61.27
2023-02-23T22:54:24.120Z,62.70
2023-02-23T22:56:53.347Z,62.10
2023-02-23T22:59:22.181Z,58.83
2023-02-23T23:01:51.030Z,63.40
2023-02-23T23:04:22.179Z,61.97
2023-02-23T23:06:52.940Z,61.30
2023-02-23T23:09:22.174Z,61.03
2023-02-23T23:11:52.001Z,61.67
2023-02-23T23:14:21.112Z,61.20
2023-02-23T23:16:50.819Z,59.43
2023-02-23T23:19:24.275Z,58.97
2023-02-23T23:21:56.464Z,61.37
2023-02-23T23:24:26.461Z,62.70
2023-02-23T23:27:01.047Z,61.47
2023-02-23T23:29:30.845Z,60.53
2023-02-23T23:32:01.678Z,58.13
2023-02-23T23:34:33.614Z,58.47
2023-02-23T23:37:04.340Z,58.50
2023-02-23T23:39:33.527Z,59.37
2023-02-23T23:42:03.696Z,57.37
2023-02-23T23:44:33.912Z,56.97
2023-02-23T23:47:05.580Z,57.90
2023-02-23T23:49:38.008Z,56.97
2023-02-23T23:52:08.625Z,56.10
2023-02-23T23:54:41.277Z,55.57
2023-02-23T23:57:11.497Z,56.20
2023-02-23T23:59:46.097Z,54.97
